Bookmark and Share
Track history (hours):
 

Bw Arctic

Last reported at 2014-Apr-14 16:30 UTC. Time now 2014-Apr-23 15:06 UTC.
Position N 51°39' E 002°24'.
Warning: this ship's position is 8 days out of date.

Length 292 m; beam 48 m; draft 17.2 m.

Type: Cargo ship. MMSI: 371579000.

NotesDate/timePositionNaut miles runAvg speedWind from/ knotsBaromVisibWave heightAir tempDewpointWater temp
2014-Apr-14 16:30N 51°39' E 002°24'1010.8
2014-Apr-14 15:33N 51°31' E 002°14'1212.3
2014-Apr-14 14:33N 51°22' E 002°01'1313.1
2014-Apr-14 13:34N 51°12' E 001°47'6312.6
2014-Apr-14 08:33N 50°26' E 000°38'27911.9
2014-Apr-13 09:00N 48°24' W 005°48'25010.4 070 / 41027.5 5.4 1.050.1 8.510.0
2014-Apr-12 09:00N 44°42' W 008°36'39310.3 070 / 151023.2 5.4 1.511.2 7.911.0
2014-Apr-10 19:00N 38°12' W 009°42'3 5.0 220 / 21014.8 5.4 16.212.214.0
2014-Apr-10 18:18N 38°09' W 009°41'1011.3
2014-Apr-10 17:23N 37°58' W 009°38'911.2
2014-Apr-10 16:33N 37°49' W 009°35'1311.0
2014-Apr-10 15:21N 37°37' W 009°32'21610.4
2014-Apr-09 18:33N 35°59' W 005°31'9 9.1
2014-Apr-09 17:33N 36°05' W 005°22'1 1.4
2014-Apr-09 16:31N 36°06' W 005°22'0 0.0
2014-Apr-09 15:31N 36°06' W 005°22'0 0.0
2014-Apr-09 14:31N 36°06' W 005°22'0 0.0
2014-Apr-09 13:31N 36°06' W 005°22'0 0.0
2014-Apr-09 12:31N 36°06' W 005°22'0 0.0
2014-Apr-09 11:31N 36°06' W 005°22'0 0.1
2014-Apr-09 10:31N 36°06' W 005°22'0 0.1
2014-Apr-09 09:33N 36°06' W 005°22'6 5.6
2014-Apr-09 08:33N 36°06' W 005°15'23813.0
2014-Apr-08 14:17N 37°31' W 000°38'1013.5
2014-Apr-08 13:33N 37°39' W 000°30'1313.7
2014-Apr-08 12:33N 37°50' W 000°20'1413.5
2014-Apr-08 11:33N 38°01' W 000°11'2813.1
2014-Apr-08 09:24N 38°25' E 000°09'9913.6
2014-Apr-08 02:09N 39°43' E 001°26'712.6
2014-Apr-08 01:33N 39°49' E 001°32'1312.5
2014-Apr-08 00:33N 39°59' E 001°42'1312.8
2014-Apr-07 23:33N 40°09' E 001°52'1313.2
2014-Apr-07 22:33N 40°19' E 002°03'1313.2
2014-Apr-07 21:33N 40°29' E 002°15'1313.3
2014-Apr-07 20:33N 40°40' E 002°25'1413.5
2014-Apr-07 19:33N 40°50' E 002°36'2713.4
2014-Apr-07 17:33N 41°11' E 002°58'1413.9
2014-Apr-07 16:33N 41°22' E 003°10'1413.6
2014-Apr-07 15:31N 41°33' E 003°22'1313.1
2014-Apr-07 14:33N 41°43' E 003°32'1613.1
2014-Apr-07 13:21N 41°55' E 003°45'1113.5
2014-Apr-07 12:33N 42°04' E 003°54'1312.8
2014-Apr-07 11:33N 42°14' E 004°04'1313.3
2014-Apr-07 10:32N 42°25' E 004°15'1413.5
2014-Apr-07 09:32N 42°36' E 004°26'1713.1
2014-Apr-07 08:15N 42°50' E 004°38'1014.3
2014-Apr-07 07:33N 42°58' E 004°47'1312.6
2014-Apr-07 06:33N 43°08' E 004°57'1212.4
2014-Apr-07 05:33N 43°20' E 004°58'7 6.9
2014-Apr-07 04:33N 43°26' E 004°52'0 0.1
2014-Apr-07 03:07N 43°26' E 004°52'0 0.0
2014-Apr-07 02:34N 43°26' E 004°52'0 0.0
2014-Apr-07 01:31N 43°26' E 004°52'0 0.0
2014-Apr-07 00:31N 43°26' E 004°52'0 0.0
2014-Apr-06 23:28N 43°26' E 004°52'0 0.0
2014-Apr-06 22:10N 43°26' E 004°52'0 0.0
2014-Apr-06 21:31N 43°26' E 004°52'0 0.0
2014-Apr-06 20:31N 43°26' E 004°52'0 0.0
2014-Apr-06 19:25N 43°26' E 004°52'0 0.0
2014-Apr-06 17:31N 43°26' E 004°52'0 0.0
2014-Apr-06 16:31N 43°26' E 004°52'0 0.0
2014-Apr-06 15:31N 43°26' E 004°52'0 0.0
2014-Apr-06 14:28N 43°26' E 004°52'0 0.0
2014-Apr-06 13:34N 43°26' E 004°52'0 0.0
2014-Apr-06 12:31N 43°26' E 004°52'0 0.0
2014-Apr-06 11:34N 43°26' E 004°52'0 0.0
2014-Apr-06 10:28N 43°26' E 004°52'0 0.0
2014-Apr-06 09:28N 43°26' E 004°52'0 0.0
2014-Apr-06 07:31N 43°26' E 004°52'0 0.0
2014-Apr-06 06:28N 43°26' E 004°52'0 0.0
2014-Apr-06 05:31N 43°26' E 004°52'0 0.0
2014-Apr-06 04:31N 43°26' E 004°52'0 0.0
2014-Apr-06 02:28N 43°26' E 004°52'0 0.0
2014-Apr-06 01:28N 43°26' E 004°52'0 0.0
2014-Apr-06 00:31N 43°26' E 004°52'0 0.0
2014-Apr-05 23:28N 43°26' E 004°52'0 0.0
2014-Apr-05 22:25N 43°26' E 004°52'0 0.0
2014-Apr-05 21:31N 43°26' E 004°52'0 0.0
2014-Apr-05 20:31N 43°26' E 004°52'0 0.0
2014-Apr-05 19:28N 43°26' E 004°52'0 0.0
2014-Apr-05 17:28N 43°26' E 004°52'0 0.0
2014-Apr-05 16:28N 43°26' E 004°52'0 0.0
2014-Apr-05 15:31N 43°26' E 004°52'0 0.0
2014-Apr-05 14:31N 43°26' E 004°52'0 0.0
2014-Apr-05 12:25N 43°26' E 004°52'0 0.0
2014-Apr-05 11:31N 43°26' E 004°52'0 0.0
2014-Apr-05 10:25N 43°26' E 004°52'0 0.0
2014-Apr-05 09:31N 43°26' E 004°52'0 0.0
2014-Apr-05 08:19N 43°26' E 004°52'0 0.0
2014-Apr-05 07:28N 43°26' E 004°52'0 0.0
2014-Apr-05 06:31N 43°26' E 004°52'0 0.0
2014-Apr-05 05:31N 43°26' E 004°52'0 0.0
2014-Apr-05 04:31N 43°26' E 004°52'0 0.0
2014-Apr-05 02:28N 43°26' E 004°52'0 0.0
2014-Apr-05 01:28N 43°26' E 004°52'0 0.0
2014-Apr-05 00:31N 43°26' E 004°52'0 0.0
2014-Apr-04 23:31N 43°26' E 004°52'0 0.0
2014-Apr-04 21:34N 43°26' E 004°52'0 0.0
2014-Apr-04 20:28N 43°26' E 004°52'0 0.0
2014-Apr-04 19:31N 43°26' E 004°52'0 0.0
2014-Apr-04 18:10N 43°26' E 004°52'0 0.0
2014-Apr-04 17:31N 43°26' E 004°52'0 0.0
2014-Apr-04 16:31N 43°26' E 004°52'  

Dump ship's entire track history

sailing weather and tide predictions

Bw Arctic — 3EDI6 — position and weather